sensor_id;sensor_type;location;lat;lon;timestamp;P1;durP1;ratioP1;P2;durP2;ratioP2
10166;SDS011;62970;53.130;8.244;2022-10-22T00:01:41;8.50;;;6.07;;
10166;SDS011;62970;53.130;8.244;2022-10-22T00:04:10;7.03;;;6.27;;
10166;SDS011;62970;53.130;8.244;2022-10-22T00:06:40;7.17;;;6.47;;
10166;SDS011;62970;53.130;8.244;2022-10-22T00:09:09;7.50;;;6.80;;
10166;SDS011;62970;53.130;8.244;2022-10-22T00:11:39;7.63;;;6.63;;
10166;SDS011;62970;53.130;8.244;2022-10-22T00:14:09;7.70;;;6.73;;
10166;SDS011;62970;53.130;8.244;2022-10-22T00:16:42;6.63;;;6.03;;
10166;SDS011;62970;53.130;8.244;2022-10-22T00:19:12;6.93;;;6.27;;
10166;SDS011;62970;53.130;8.244;2022-10-22T00:21:41;6.77;;;6.17;;
10166;SDS011;62970;53.130;8.244;2022-10-22T00:24:10;7.87;;;6.10;;
10166;SDS011;62970;53.130;8.244;2022-10-22T00:26:40;8.17;;;6.80;;
10166;SDS011;62970;53.130;8.244;2022-10-22T00:29:09;6.53;;;6.00;;
10166;SDS011;62970;53.130;8.244;2022-10-22T00:31:38;6.63;;;6.03;;
10166;SDS011;62970;53.130;8.244;2022-10-22T00:34:13;7.33;;;6.63;;
10166;SDS011;62970;53.130;8.244;2022-10-22T00:36:44;6.53;;;5.93;;
10166;SDS011;62970;53.130;8.244;2022-10-22T00:39:14;9.33;;;6.57;;
10166;SDS011;62970;53.130;8.244;2022-10-22T00:41:45;7.07;;;6.30;;
10166;SDS011;62970;53.130;8.244;2022-10-22T00:47:32;7.27;;;6.57;;
10166;SDS011;62970;53.130;8.244;2022-10-22T00:50:10;6.93;;;6.07;;
10166;SDS011;62970;53.130;8.244;2022-10-22T00:52:42;7.63;;;6.93;;
10166;SDS011;62970;53.130;8.244;2022-10-22T00:55:12;6.30;;;5.70;;
10166;SDS011;62970;53.130;8.244;2022-10-22T00:57:42;7.13;;;6.43;;
10166;SDS011;62970;53.130;8.244;2022-10-22T01:00:13;8.33;;;6.67;;
10166;SDS011;62970;53.130;8.244;2022-10-22T01:02:44;8.13;;;6.73;;
10166;SDS011;62970;53.130;8.244;2022-10-22T01:05:17;7.50;;;6.60;;
10166;SDS011;62970;53.130;8.244;2022-10-22T01:07:48;7.23;;;6.53;;
10166;SDS011;62970;53.130;8.244;2022-10-22T01:10:30;6.63;;;6.03;;
10166;SDS011;62970;53.130;8.244;2022-10-22T01:13:16;6.87;;;5.93;;
10166;SDS011;62970;53.130;8.244;2022-10-22T01:16:02;6.50;;;5.80;;
10166;SDS011;62970;53.130;8.244;2022-10-22T01:18:40;6.30;;;5.70;;
10166;SDS011;62970;53.130;8.244;2022-10-22T01:21:22;6.70;;;6.00;;
10166;SDS011;62970;53.130;8.244;2022-10-22T01:24:11;7.50;;;6.13;;
10166;SDS011;62970;53.130;8.244;2022-10-22T01:26:59;6.90;;;6.00;;
10166;SDS011;62970;53.130;8.244;2022-10-22T01:29:42;6.27;;;5.67;;
10166;SDS011;62970;53.130;8.244;2022-10-22T01:32:16;6.70;;;5.93;;
10166;SDS011;62970;53.130;8.244;2022-10-22T01:34:49;9.70;;;5.77;;
10166;SDS011;62970;53.130;8.244;2022-10-22T01:37:23;8.50;;;6.03;;
10166;SDS011;62970;53.130;8.244;2022-10-22T01:39:57;6.93;;;6.23;;
10166;SDS011;62970;53.130;8.244;2022-10-22T01:42:28;7.37;;;6.07;;
10166;SDS011;62970;53.130;8.244;2022-10-22T01:45:00;6.73;;;6.13;;
10166;SDS011;62970;53.130;8.244;2022-10-22T01:47:32;7.20;;;6.50;;
10166;SDS011;62970;53.130;8.244;2022-10-22T01:53:21;7.43;;;6.73;;
10166;SDS011;62970;53.130;8.244;2022-10-22T01:56:09;8.10;;;6.60;;
10166;SDS011;62970;53.130;8.244;2022-10-22T01:58:54;7.53;;;6.83;;
10166;SDS011;62970;53.130;8.244;2022-10-22T02:01:38;6.73;;;6.13;;
10166;SDS011;62970;53.130;8.244;2022-10-22T02:04:17;7.13;;;6.43;;
10166;SDS011;62970;53.130;8.244;2022-10-22T02:06:53;9.23;;;6.80;;
10166;SDS011;62970;53.130;8.244;2022-10-22T02:09:29;7.07;;;6.37;;
10166;SDS011;62970;53.130;8.244;2022-10-22T02:12:01;7.50;;;6.77;;
10166;SDS011;62970;53.130;8.244;2022-10-22T02:14:33;8.70;;;6.57;;
10166;SDS011;62970;53.130;8.244;2022-10-22T02:17:11;6.57;;;5.97;;
10166;SDS011;62970;53.130;8.244;2022-10-22T02:19:46;10.73;;;6.37;;
10166;SDS011;62970;53.130;8.244;2022-10-22T02:22:22;6.90;;;6.20;;
10166;SDS011;62970;53.130;8.244;2022-10-22T02:24:53;9.40;;;6.43;;
10166;SDS011;62970;53.130;8.244;2022-10-22T02:27:25;6.73;;;6.13;;
10166;SDS011;62970;53.130;8.244;2022-10-22T02:30:00;6.77;;;6.13;;
10166;SDS011;62970;53.130;8.244;2022-10-22T02:32:38;6.57;;;5.97;;
10166;SDS011;62970;53.130;8.244;2022-10-22T02:35:12;6.50;;;5.90;;
10166;SDS011;62970;53.130;8.244;2022-10-22T02:37:45;7.30;;;6.60;;
10166;SDS011;62970;53.130;8.244;2022-10-22T02:40:16;7.03;;;6.43;;
10166;SDS011;62970;53.130;8.244;2022-10-22T02:42:47;8.17;;;7.37;;
10166;SDS011;62970;53.130;8.244;2022-10-22T02:45:18;7.30;;;6.50;;
10166;SDS011;62970;53.130;8.244;2022-10-22T02:47:50;7.37;;;6.67;;
10166;SDS011;62970;53.130;8.244;2022-10-22T02:50:19;7.83;;;7.03;;
10166;SDS011;62970;53.130;8.244;2022-10-22T02:52:49;7.80;;;7.10;;
10166;SDS011;62970;53.130;8.244;2022-10-22T02:55:20;7.97;;;7.13;;
10166;SDS011;62970;53.130;8.244;2022-10-22T02:57:49;8.40;;;7.60;;
10166;SDS011;62970;53.130;8.244;2022-10-22T03:00:18;7.20;;;6.50;;
10166;SDS011;62970;53.130;8.244;2022-10-22T03:02:51;8.00;;;7.20;;
10166;SDS011;62970;53.130;8.244;2022-10-22T03:05:20;7.87;;;7.07;;
10166;SDS011;62970;53.130;8.244;2022-10-22T03:07:49;7.93;;;6.90;;
10166;SDS011;62970;53.130;8.244;2022-10-22T03:10:20;8.10;;;7.30;;
10166;SDS011;62970;53.130;8.244;2022-10-22T03:12:49;7.70;;;6.90;;
10166;SDS011;62970;53.130;8.244;2022-10-22T03:15:20;7.37;;;6.67;;
10166;SDS011;62970;53.130;8.244;2022-10-22T03:17:52;7.90;;;7.10;;
10166;SDS011;62970;53.130;8.244;2022-10-22T03:20:21;7.73;;;7.03;;
10166;SDS011;62970;53.130;8.244;2022-10-22T03:22:50;7.83;;;7.03;;
10166;SDS011;62970;53.130;8.244;2022-10-22T03:25:21;8.07;;;7.30;;
10166;SDS011;62970;53.130;8.244;2022-10-22T03:27:55;7.20;;;6.57;;
10166;SDS011;62970;53.130;8.244;2022-10-22T03:30:28;7.77;;;6.60;;
10166;SDS011;62970;53.130;8.244;2022-10-22T03:33:00;7.43;;;6.80;;
10166;SDS011;62970;53.130;8.244;2022-10-22T03:35:29;7.07;;;6.40;;
10166;SDS011;62970;53.130;8.244;2022-10-22T03:37:59;6.93;;;6.23;;
10166;SDS011;62970;53.130;8.244;2022-10-22T03:40:29;8.33;;;7.53;;
10166;SDS011;62970;53.130;8.244;2022-10-22T03:42:58;7.63;;;6.93;;
10166;SDS011;62970;53.130;8.244;2022-10-22T03:45:27;8.10;;;7.23;;
10166;SDS011;62970;53.130;8.244;2022-10-22T03:48:00;7.63;;;6.93;;
10166;SDS011;62970;53.130;8.244;2022-10-22T03:50:29;7.23;;;6.63;;
10166;SDS011;62970;53.130;8.244;2022-10-22T03:52:58;8.17;;;6.90;;
10166;SDS011;62970;53.130;8.244;2022-10-22T03:55:28;7.60;;;6.80;;
10166;SDS011;62970;53.130;8.244;2022-10-22T03:57:57;8.40;;;6.83;;
10166;SDS011;62970;53.130;8.244;2022-10-22T04:00:27;7.70;;;7.00;;
10166;SDS011;62970;53.130;8.244;2022-10-22T04:02:59;7.77;;;6.97;;
10166;SDS011;62970;53.130;8.244;2022-10-22T04:05:30;8.97;;;7.00;;
10166;SDS011;62970;53.130;8.244;2022-10-22T04:08:00;6.73;;;6.13;;
10166;SDS011;62970;53.130;8.244;2022-10-22T04:10:29;7.10;;;6.43;;
10166;SDS011;62970;53.130;8.244;2022-10-22T04:12:58;7.23;;;6.63;;
10166;SDS011;62970;53.130;8.244;2022-10-22T04:15:28;8.20;;;7.27;;
10166;SDS011;62970;53.130;8.244;2022-10-22T04:18:00;7.73;;;6.53;;
10166;SDS011;62970;53.130;8.244;2022-10-22T04:20:29;7.20;;;6.50;;
10166;SDS011;62970;53.130;8.244;2022-10-22T04:23:01;6.77;;;6.17;;
10166;SDS011;62970;53.130;8.244;2022-10-22T04:25:31;7.30;;;6.60;;
10166;SDS011;62970;53.130;8.244;2022-10-22T04:28:01;6.50;;;5.90;;
10166;SDS011;62970;53.130;8.244;2022-10-22T04:30:33;8.27;;;6.17;;
10166;SDS011;62970;53.130;8.244;2022-10-22T04:33:05;7.03;;;6.33;;
10166;SDS011;62970;53.130;8.244;2022-10-22T04:35:36;6.60;;;6.00;;
10166;SDS011;62970;53.130;8.244;2022-10-22T04:38:07;6.70;;;6.10;;
10166;SDS011;62970;53.130;8.244;2022-10-22T04:40:36;6.47;;;5.97;;
10166;SDS011;62970;53.130;8.244;2022-10-22T04:43:05;7.17;;;6.00;;
10166;SDS011;62970;53.130;8.244;2022-10-22T04:45:34;7.10;;;6.40;;
10166;SDS011;62970;53.130;8.244;2022-10-22T04:48:07;7.93;;;6.23;;
10166;SDS011;62970;53.130;8.244;2022-10-22T04:50:37;7.37;;;6.63;;
10166;SDS011;62970;53.130;8.244;2022-10-22T04:53:09;7.03;;;6.23;;
10166;SDS011;62970;53.130;8.244;2022-10-22T04:55:42;6.40;;;5.70;;
10166;SDS011;62970;53.130;8.244;2022-10-22T04:58:11;6.90;;;6.23;;
10166;SDS011;62970;53.130;8.244;2022-10-22T05:00:40;6.77;;;6.07;;
10166;SDS011;62970;53.130;8.244;2022-10-22T05:03:15;6.77;;;6.13;;
10166;SDS011;62970;53.130;8.244;2022-10-22T05:05:44;7.47;;;6.60;;
10166;SDS011;62970;53.130;8.244;2022-10-22T05:08:15;7.40;;;6.60;;
10166;SDS011;62970;53.130;8.244;2022-10-22T05:10:44;6.93;;;6.33;;
10166;SDS011;62970;53.130;8.244;2022-10-22T05:13:13;7.00;;;6.30;;
10166;SDS011;62970;53.130;8.244;2022-10-22T05:15:43;9.37;;;6.87;;
10166;SDS011;62970;53.130;8.244;2022-10-22T05:18:15;8.03;;;7.17;;
10166;SDS011;62970;53.130;8.244;2022-10-22T05:20:45;7.23;;;6.60;;
10166;SDS011;62970;53.130;8.244;2022-10-22T05:23:14;7.83;;;7.03;;
10166;SDS011;62970;53.130;8.244;2022-10-22T05:25:43;7.20;;;6.50;;
10166;SDS011;62970;53.130;8.244;2022-10-22T05:28:15;6.70;;;6.00;;
10166;SDS011;62970;53.130;8.244;2022-10-22T05:30:51;9.43;;;6.80;;
10166;SDS011;62970;53.130;8.244;2022-10-22T05:33:24;6.93;;;6.20;;
10166;SDS011;62970;53.130;8.244;2022-10-22T05:35:53;7.13;;;6.43;;
10166;SDS011;62970;53.130;8.244;2022-10-22T05:38:23;7.13;;;6.53;;
10166;SDS011;62970;53.130;8.244;2022-10-22T05:40:59;8.53;;;7.57;;
10166;SDS011;62970;53.130;8.244;2022-10-22T05:43:32;9.40;;;8.40;;
10166;SDS011;62970;53.130;8.244;2022-10-22T05:46:04;7.33;;;6.60;;
10166;SDS011;62970;53.130;8.244;2022-10-22T05:48:37;7.90;;;7.20;;
10166;SDS011;62970;53.130;8.244;2022-10-22T05:51:08;6.97;;;6.33;;
10166;SDS011;62970;53.130;8.244;2022-10-22T05:53:39;7.37;;;6.70;;
10166;SDS011;62970;53.130;8.244;2022-10-22T05:56:10;6.83;;;6.17;;
10166;SDS011;62970;53.130;8.244;2022-10-22T05:58:41;7.60;;;6.27;;
10166;SDS011;62970;53.130;8.244;2022-10-22T06:01:12;6.73;;;6.13;;
10166;SDS011;62970;53.130;8.244;2022-10-22T06:03:46;11.30;;;6.70;;
10166;SDS011;62970;53.130;8.244;2022-10-22T06:06:17;7.17;;;6.57;;
10166;SDS011;62970;53.130;8.244;2022-10-22T06:08:49;7.33;;;6.40;;
10166;SDS011;62970;53.130;8.244;2022-10-22T06:11:21;7.40;;;6.70;;
10166;SDS011;62970;53.130;8.244;2022-10-22T06:13:51;7.37;;;6.33;;
10166;SDS011;62970;53.130;8.244;2022-10-22T06:16:22;8.07;;;6.83;;
10166;SDS011;62970;53.130;8.244;2022-10-22T06:18:54;7.37;;;6.67;;
10166;SDS011;62970;53.130;8.244;2022-10-22T06:21:26;7.80;;;7.10;;
10166;SDS011;62970;53.130;8.244;2022-10-22T06:23:56;8.03;;;7.23;;
10166;SDS011;62970;53.130;8.244;2022-10-22T06:26:29;7.13;;;6.50;;
10166;SDS011;62970;53.130;8.244;2022-10-22T06:28:58;7.97;;;6.93;;
10166;SDS011;62970;53.130;8.244;2022-10-22T06:31:28;7.77;;;7.07;;
10166;SDS011;62970;53.130;8.244;2022-10-22T06:34:03;7.40;;;6.47;;
10166;SDS011;62970;53.130;8.244;2022-10-22T06:36:34;7.03;;;6.33;;
10166;SDS011;62970;53.130;8.244;2022-10-22T06:39:05;6.97;;;6.30;;
10166;SDS011;62970;53.130;8.244;2022-10-22T06:41:34;7.50;;;6.80;;
10166;SDS011;62970;53.130;8.244;2022-10-22T06:44:05;8.00;;;6.30;;
10166;SDS011;62970;53.130;8.244;2022-10-22T06:46:34;7.60;;;6.87;;
10166;SDS011;62970;53.130;8.244;2022-10-22T06:49:09;7.87;;;7.00;;
10166;SDS011;62970;53.130;8.244;2022-10-22T06:51:41;8.10;;;7.30;;
10166;SDS011;62970;53.130;8.244;2022-10-22T06:54:11;7.87;;;6.93;;
10166;SDS011;62970;53.130;8.244;2022-10-22T06:56:40;8.60;;;7.50;;
10166;SDS011;62970;53.130;8.244;2022-10-22T06:59:09;9.23;;;8.17;;
10166;SDS011;62970;53.130;8.244;2022-10-22T07:01:39;9.00;;;7.90;;
10166;SDS011;62970;53.130;8.244;2022-10-22T07:04:11;9.17;;;8.07;;
10166;SDS011;62970;53.130;8.244;2022-10-22T07:06:40;8.50;;;7.63;;
10166;SDS011;62970;53.130;8.244;2022-10-22T07:09:09;8.57;;;7.63;;
10166;SDS011;62970;53.130;8.244;2022-10-22T07:11:45;8.30;;;7.57;;
10166;SDS011;62970;53.130;8.244;2022-10-22T07:14:16;8.03;;;7.23;;
10166;SDS011;62970;53.130;8.244;2022-10-22T07:16:45;8.33;;;7.53;;
10166;SDS011;62970;53.130;8.244;2022-10-22T07:19:17;9.67;;;8.67;;
10166;SDS011;62970;53.130;8.244;2022-10-22T07:21:46;8.63;;;7.60;;
10166;SDS011;62970;53.130;8.244;2022-10-22T07:24:15;8.63;;;7.83;;
10166;SDS011;62970;53.130;8.244;2022-10-22T07:26:45;8.63;;;7.83;;
10166;SDS011;62970;53.130;8.244;2022-10-22T07:29:14;8.90;;;8.00;;
10166;SDS011;62970;53.130;8.244;2022-10-22T07:31:44;8.47;;;7.67;;
10166;SDS011;62970;53.130;8.244;2022-10-22T07:34:13;8.70;;;7.77;;
10166;SDS011;62970;53.130;8.244;2022-10-22T07:36:45;12.37;;;7.47;;
10166;SDS011;62970;53.130;8.244;2022-10-22T07:39:15;8.90;;;8.10;;
10166;SDS011;62970;53.130;8.244;2022-10-22T07:41:44;9.53;;;7.87;;
10166;SDS011;62970;53.130;8.244;2022-10-22T07:44:13;8.80;;;7.63;;
10166;SDS011;62970;53.130;8.244;2022-10-22T07:46:43;9.47;;;7.73;;
10166;SDS011;62970;53.130;8.244;2022-10-22T07:49:12;8.40;;;7.33;;
10166;SDS011;62970;53.130;8.244;2022-10-22T07:51:44;7.77;;;6.97;;
10166;SDS011;62970;53.130;8.244;2022-10-22T07:54:13;8.53;;;7.83;;
10166;SDS011;62970;53.130;8.244;2022-10-22T07:56:43;8.37;;;7.50;;
10166;SDS011;62970;53.130;8.244;2022-10-22T07:59:13;8.03;;;7.23;;
10166;SDS011;62970;53.130;8.244;2022-10-22T08:01:42;9.50;;;8.40;;
10166;SDS011;62970;53.130;8.244;2022-10-22T08:04:11;9.07;;;7.83;;
10166;SDS011;62970;53.130;8.244;2022-10-22T08:06:40;9.27;;;8.13;;
10166;SDS011;62970;53.130;8.244;2022-10-22T08:09:14;8.03;;;7.23;;
10166;SDS011;62970;53.130;8.244;2022-10-22T08:11:44;7.80;;;7.00;;
10166;SDS011;62970;53.130;8.244;2022-10-22T08:14:14;7.47;;;6.47;;
10166;SDS011;62970;53.130;8.244;2022-10-22T08:16:43;7.33;;;6.40;;
10166;SDS011;62970;53.130;8.244;2022-10-22T08:19:14;7.27;;;6.50;;
10166;SDS011;62970;53.130;8.244;2022-10-22T08:21:48;7.37;;;6.30;;
10166;SDS011;62970;53.130;8.244;2022-10-22T08:24:17;7.57;;;6.30;;
10166;SDS011;62970;53.130;8.244;2022-10-22T08:26:47;7.97;;;6.27;;
10166;SDS011;62970;53.130;8.244;2022-10-22T08:29:18;7.13;;;6.13;;
10166;SDS011;62970;53.130;8.244;2022-10-22T08:31:48;8.63;;;6.63;;
10166;SDS011;62970;53.130;8.244;2022-10-22T08:34:17;6.73;;;6.00;;
10166;SDS011;62970;53.130;8.244;2022-10-22T08:36:50;9.37;;;6.90;;
10166;SDS011;62970;53.130;8.244;2022-10-22T08:39:19;6.60;;;5.90;;
10166;SDS011;62970;53.130;8.244;2022-10-22T08:41:51;6.33;;;5.73;;
10166;SDS011;62970;53.130;8.244;2022-10-22T08:44:40;6.60;;;5.90;;
10166;SDS011;62970;53.130;8.244;2022-10-22T08:47:26;7.43;;;5.87;;
10166;SDS011;62970;53.130;8.244;2022-10-22T08:50:09;6.77;;;6.17;;
10166;SDS011;62970;53.130;8.244;2022-10-22T08:52:47;6.70;;;5.43;;
10166;SDS011;62970;53.130;8.244;2022-10-22T08:55:21;6.10;;;5.50;;
10166;SDS011;62970;53.130;8.244;2022-10-22T08:57:54;6.90;;;6.20;;
10166;SDS011;62970;53.130;8.244;2022-10-22T09:00:33;6.10;;;5.50;;
10166;SDS011;62970;53.130;8.244;2022-10-22T09:03:13;7.43;;;6.43;;
10166;SDS011;62970;53.130;8.244;2022-10-22T09:06:07;7.17;;;5.33;;
10166;SDS011;62970;53.130;8.244;2022-10-22T09:08:45;9.07;;;5.97;;
10166;SDS011;62970;53.130;8.244;2022-10-22T09:11:25;6.33;;;5.50;;
10166;SDS011;62970;53.130;8.244;2022-10-22T09:13:58;7.00;;;5.50;;
10166;SDS011;62970;53.130;8.244;2022-10-22T09:16:32;8.50;;;5.40;;
10166;SDS011;62970;53.130;8.244;2022-10-22T09:19:10;7.47;;;5.67;;
10166;SDS011;62970;53.130;8.244;2022-10-22T09:21:53;6.10;;;5.50;;
10166;SDS011;62970;53.130;8.244;2022-10-22T09:24:32;8.37;;;5.10;;
10166;SDS011;62970;53.130;8.244;2022-10-22T09:27:09;7.47;;;5.27;;
10166;SDS011;62970;53.130;8.244;2022-10-22T09:29:40;6.67;;;5.33;;
10166;SDS011;62970;53.130;8.244;2022-10-22T09:32:11;5.90;;;4.73;;
10166;SDS011;62970;53.130;8.244;2022-10-22T09:34:42;7.97;;;4.93;;
10166;SDS011;62970;53.130;8.244;2022-10-22T09:37:14;6.70;;;5.57;;
10166;SDS011;62970;53.130;8.244;2022-10-22T09:39:50;5.77;;;4.90;;
10166;SDS011;62970;53.130;8.244;2022-10-22T09:42:23;7.13;;;5.03;;
10166;SDS011;62970;53.130;8.244;2022-10-22T09:44:56;7.67;;;5.20;;
10166;SDS011;62970;53.130;8.244;2022-10-22T09:47:28;6.93;;;4.50;;
10166;SDS011;62970;53.130;8.244;2022-10-22T09:50:08;8.40;;;4.80;;
10166;SDS011;62970;53.130;8.244;2022-10-22T09:53:03;5.33;;;4.37;;
10166;SDS011;62970;53.130;8.244;2022-10-22T09:55:44;7.50;;;4.23;;
10166;SDS011;62970;53.130;8.244;2022-10-22T09:58:22;5.47;;;4.50;;
10166;SDS011;62970;53.130;8.244;2022-10-22T10:00:53;5.33;;;4.20;;
10166;SDS011;62970;53.130;8.244;2022-10-22T10:03:25;6.30;;;4.30;;
10166;SDS011;62970;53.130;8.244;2022-10-22T10:05:58;7.20;;;4.00;;
10166;SDS011;62970;53.130;8.244;2022-10-22T10:08:31;7.63;;;3.67;;
10166;SDS011;62970;53.130;8.244;2022-10-22T10:11:05;5.27;;;4.00;;
10166;SDS011;62970;53.130;8.244;2022-10-22T10:13:48;7.43;;;4.90;;
10166;SDS011;62970;53.130;8.244;2022-10-22T10:16:33;9.20;;;5.17;;
10166;SDS011;62970;53.130;8.244;2022-10-22T10:19:29;4.83;;;4.30;;
10166;SDS011;62970;53.130;8.244;2022-10-22T10:22:19;4.90;;;3.47;;
10166;SDS011;62970;53.130;8.244;2022-10-22T10:25:05;5.73;;;3.97;;
10166;SDS011;62970;53.130;8.244;2022-10-22T10:27:52;5.93;;;4.30;;
10166;SDS011;62970;53.130;8.244;2022-10-22T10:30:34;7.67;;;4.17;;
10166;SDS011;62970;53.130;8.244;2022-10-22T18:10:55;6.70;;;5.23;;
10166;SDS011;62970;53.130;8.244;2022-10-22T18:13:24;6.97;;;5.37;;
10166;SDS011;62970;53.130;8.244;2022-10-22T18:15:54;7.83;;;6.43;;
10166;SDS011;62970;53.130;8.244;2022-10-22T18:18:25;10.23;;;6.03;;
10166;SDS011;62970;53.130;8.244;2022-10-22T18:20:54;7.20;;;5.87;;
10166;SDS011;62970;53.130;8.244;2022-10-22T18:23:24;7.63;;;5.20;;
10166;SDS011;62970;53.130;8.244;2022-10-22T18:26:05;6.27;;;5.17;;
10166;SDS011;62970;53.130;8.244;2022-10-22T18:28:41;7.27;;;5.90;;
10166;SDS011;62970;53.130;8.244;2022-10-22T18:31:15;6.53;;;5.83;;
10166;SDS011;62970;53.130;8.244;2022-10-22T18:33:48;7.73;;;6.20;;
10166;SDS011;62970;53.130;8.244;2022-10-22T18:36:20;8.33;;;6.50;;
10166;SDS011;62970;53.130;8.244;2022-10-22T18:38:54;9.30;;;8.00;;
10166;SDS011;62970;53.130;8.244;2022-10-22T18:41:27;9.90;;;8.17;;
10166;SDS011;62970;53.130;8.244;2022-10-22T18:43:58;9.40;;;8.17;;
10166;SDS011;62970;53.130;8.244;2022-10-22T18:46:31;9.53;;;7.90;;
10166;SDS011;62970;53.130;8.244;2022-10-22T18:49:03;9.47;;;8.50;;
10166;SDS011;62970;53.130;8.244;2022-10-22T18:51:35;10.77;;;9.33;;
10166;SDS011;62970;53.130;8.244;2022-10-22T18:54:05;11.87;;;9.30;;
10166;SDS011;62970;53.130;8.244;2022-10-22T18:56:38;10.77;;;8.53;;
10166;SDS011;62970;53.130;8.244;2022-10-22T18:59:12;10.60;;;8.27;;
10166;SDS011;62970;53.130;8.244;2022-10-22T19:01:45;9.33;;;7.70;;
10166;SDS011;62970;53.130;8.244;2022-10-22T19:04:15;8.27;;;7.47;;
10166;SDS011;62970;53.130;8.244;2022-10-22T19:06:46;9.73;;;7.27;;
10166;SDS011;62970;53.130;8.244;2022-10-22T19:09:15;7.67;;;6.97;;
10166;SDS011;62970;53.130;8.244;2022-10-22T19:11:47;9.33;;;6.50;;
10166;SDS011;62970;53.130;8.244;2022-10-22T19:14:18;7.27;;;6.57;;
10166;SDS011;62970;53.130;8.244;2022-10-22T19:16:48;8.70;;;6.30;;
10166;SDS011;62970;53.130;8.244;2022-10-22T19:19:17;10.03;;;6.93;;
10166;SDS011;62970;53.130;8.244;2022-10-22T19:21:49;8.07;;;7.03;;
10166;SDS011;62970;53.130;8.244;2022-10-22T19:24:20;7.83;;;6.57;;
10166;SDS011;62970;53.130;8.244;2022-10-22T19:26:53;8.70;;;6.87;;
10166;SDS011;62970;53.130;8.244;2022-10-22T19:29:22;8.97;;;6.80;;
10166;SDS011;62970;53.130;8.244;2022-10-22T19:31:51;8.77;;;6.40;;
10166;SDS011;62970;53.130;8.244;2022-10-22T19:34:23;7.50;;;6.67;;
10166;SDS011;62970;53.130;8.244;2022-10-22T19:36:53;8.30;;;5.90;;
10166;SDS011;62970;53.130;8.244;2022-10-22T19:39:22;8.93;;;6.53;;
10166;SDS011;62970;53.130;8.244;2022-10-22T19:41:54;7.73;;;6.63;;
10166;SDS011;62970;53.130;8.244;2022-10-22T19:44:25;7.33;;;6.63;;
10166;SDS011;62970;53.130;8.244;2022-10-22T19:46:54;8.60;;;7.13;;
10166;SDS011;62970;53.130;8.244;2022-10-22T19:49:24;8.33;;;6.57;;
10166;SDS011;62970;53.130;8.244;2022-10-22T19:51:53;9.53;;;6.93;;
10166;SDS011;62970;53.130;8.244;2022-10-22T19:54:22;9.83;;;8.60;;
10166;SDS011;62970;53.130;8.244;2022-10-22T19:56:55;9.03;;;8.07;;
10166;SDS011;62970;53.130;8.244;2022-10-22T19:59:24;11.63;;;9.77;;
10166;SDS011;62970;53.130;8.244;2022-10-22T20:01:53;10.47;;;9.33;;
10166;SDS011;62970;53.130;8.244;2022-10-22T20:04:22;12.43;;;10.47;;
10166;SDS011;62970;53.130;8.244;2022-10-22T20:06:52;14.33;;;11.17;;
10166;SDS011;62970;53.130;8.244;2022-10-22T20:09:22;14.60;;;11.33;;
10166;SDS011;62970;53.130;8.244;2022-10-22T20:11:51;13.93;;;11.50;;
10166;SDS011;62970;53.130;8.244;2022-10-22T20:14:26;14.43;;;10.90;;
10166;SDS011;62970;53.130;8.244;2022-10-22T20:16:55;16.83;;;12.83;;
10166;SDS011;62970;53.130;8.244;2022-10-22T20:19:24;16.30;;;12.73;;
10166;SDS011;62970;53.130;8.244;2022-10-22T20:21:53;14.33;;;12.73;;
10166;SDS011;62970;53.130;8.244;2022-10-22T20:24:23;14.23;;;11.83;;
10166;SDS011;62970;53.130;8.244;2022-10-22T20:26:55;14.67;;;11.77;;
10166;SDS011;62970;53.130;8.244;2022-10-22T20:29:24;13.50;;;12.07;;
10166;SDS011;62970;53.130;8.244;2022-10-22T20:31:53;12.93;;;11.60;;
10166;SDS011;62970;53.130;8.244;2022-10-22T20:34:23;12.63;;;11.37;;
10166;SDS011;62970;53.130;8.244;2022-10-22T20:36:55;12.93;;;11.53;;
10166;SDS011;62970;53.130;8.244;2022-10-22T20:39:24;11.97;;;10.77;;
10166;SDS011;62970;53.130;8.244;2022-10-22T20:41:57;11.40;;;10.20;;
10166;SDS011;62970;53.130;8.244;2022-10-22T20:44:26;11.07;;;9.70;;
10166;SDS011;62970;53.130;8.244;2022-10-22T20:46:56;10.37;;;9.37;;
10166;SDS011;62970;53.130;8.244;2022-10-22T20:49:26;10.97;;;9.77;;
10166;SDS011;62970;53.130;8.244;2022-10-22T20:51:57;9.73;;;8.73;;
10166;SDS011;62970;53.130;8.244;2022-10-22T20:54:26;9.77;;;8.47;;
10166;SDS011;62970;53.130;8.244;2022-10-22T20:56:59;9.83;;;8.77;;
10166;SDS011;62970;53.130;8.244;2022-10-22T20:59:29;9.50;;;8.47;;
10166;SDS011;62970;53.130;8.244;2022-10-22T21:02:01;10.20;;;8.70;;
10166;SDS011;62970;53.130;8.244;2022-10-22T21:04:30;10.97;;;9.87;;
10166;SDS011;62970;53.130;8.244;2022-10-22T21:06:59;11.83;;;10.60;;
10166;SDS011;62970;53.130;8.244;2022-10-22T21:09:28;11.73;;;10.53;;
10166;SDS011;62970;53.130;8.244;2022-10-22T21:12:01;13.23;;;9.93;;
10166;SDS011;62970;53.130;8.244;2022-10-22T21:14:30;11.10;;;9.67;;
10166;SDS011;62970;53.130;8.244;2022-10-22T21:17:00;10.57;;;9.00;;
10166;SDS011;62970;53.130;8.244;2022-10-22T21:19:29;9.77;;;8.77;;
10166;SDS011;62970;53.130;8.244;2022-10-22T21:21:58;12.40;;;9.03;;
10166;SDS011;62970;53.130;8.244;2022-10-22T21:24:28;9.87;;;8.87;;
10166;SDS011;62970;53.130;8.244;2022-10-22T21:26:58;10.50;;;9.37;;
10166;SDS011;62970;53.130;8.244;2022-10-22T21:29:31;9.77;;;8.77;;
10166;SDS011;62970;53.130;8.244;2022-10-22T21:32:00;11.80;;;8.57;;
10166;SDS011;62970;53.130;8.244;2022-10-22T21:34:29;8.37;;;7.63;;
10166;SDS011;62970;53.130;8.244;2022-10-22T21:36:58;10.90;;;7.97;;
10166;SDS011;62970;53.130;8.244;2022-10-22T21:39:27;9.80;;;8.17;;
10166;SDS011;62970;53.130;8.244;2022-10-22T21:42:02;9.63;;;8.30;;
10166;SDS011;62970;53.130;8.244;2022-10-22T21:44:31;8.07;;;7.27;;
10166;SDS011;62970;53.130;8.244;2022-10-22T21:47:00;8.30;;;7.50;;
10166;SDS011;62970;53.130;8.244;2022-10-22T21:49:30;7.87;;;7.13;;
10166;SDS011;62970;53.130;8.244;2022-10-22T21:51:59;8.00;;;7.27;;
10166;SDS011;62970;53.130;8.244;2022-10-22T21:54:31;9.10;;;7.17;;
10166;SDS011;62970;53.130;8.244;2022-10-22T21:57:04;9.10;;;7.37;;
10166;SDS011;62970;53.130;8.244;2022-10-22T21:59:34;7.50;;;6.80;;
10166;SDS011;62970;53.130;8.244;2022-10-22T22:02:03;11.83;;;8.13;;
10166;SDS011;62970;53.130;8.244;2022-10-22T22:04:32;9.90;;;8.60;;
10166;SDS011;62970;53.130;8.244;2022-10-22T22:07:01;9.83;;;7.33;;
10166;SDS011;62970;53.130;8.244;2022-10-22T22:09:30;8.00;;;7.20;;
10166;SDS011;62970;53.130;8.244;2022-10-22T22:11:59;7.43;;;6.50;;
10166;SDS011;62970;53.130;8.244;2022-10-22T22:14:31;7.63;;;6.90;;
10166;SDS011;62970;53.130;8.244;2022-10-22T22:17:00;7.20;;;6.50;;
10166;SDS011;62970;53.130;8.244;2022-10-22T22:19:29;7.10;;;6.40;;
10166;SDS011;62970;53.130;8.244;2022-10-22T22:22:00;8.37;;;6.03;;
10166;SDS011;62970;53.130;8.244;2022-10-22T22:24:29;7.13;;;6.43;;
10166;SDS011;62970;53.130;8.244;2022-10-22T22:26:58;7.03;;;6.33;;
10166;SDS011;62970;53.130;8.244;2022-10-22T22:29:27;7.40;;;6.70;;
10166;SDS011;62970;53.130;8.244;2022-10-22T22:32:01;6.87;;;6.27;;
10166;SDS011;62970;53.130;8.244;2022-10-22T22:34:30;8.23;;;6.37;;
10166;SDS011;62970;53.130;8.244;2022-10-22T22:36:59;8.13;;;6.50;;
10166;SDS011;62970;53.130;8.244;2022-10-22T22:39:28;7.80;;;6.40;;
10166;SDS011;62970;53.130;8.244;2022-10-22T22:41:58;7.90;;;6.33;;
10166;SDS011;62970;53.130;8.244;2022-10-22T22:44:30;6.97;;;6.27;;
10166;SDS011;62970;53.130;8.244;2022-10-22T22:47:00;6.60;;;6.00;;
10166;SDS011;62970;53.130;8.244;2022-10-22T22:49:31;7.30;;;6.27;;
10166;SDS011;62970;53.130;8.244;2022-10-22T22:52:01;8.23;;;5.70;;
10166;SDS011;62970;53.130;8.244;2022-10-22T22:54:30;5.97;;;5.47;;
10166;SDS011;62970;53.130;8.244;2022-10-22T22:56:59;7.33;;;5.73;;
10166;SDS011;62970;53.130;8.244;2022-10-22T22:59:31;6.20;;;5.60;;